sensor_id;sensor_type;location;lat;lon;timestamp;P1;durP1;ratioP1;P2;durP2;ratioP2
38901;SDS011;24661;53.566;9.910;2023-06-26T00:00:02;10.47;;;9.37;;
38901;SDS011;24661;53.566;9.910;2023-06-26T00:02:30;10.33;;;9.33;;
38901;SDS011;24661;53.566;9.910;2023-06-26T00:04:58;10.50;;;9.50;;
38901;SDS011;24661;53.566;9.910;2023-06-26T00:07:27;11.13;;;9.23;;
38901;SDS011;24661;53.566;9.910;2023-06-26T00:09:53;10.37;;;9.20;;
38901;SDS011;24661;53.566;9.910;2023-06-26T00:12:18;10.10;;;9.10;;
38901;SDS011;24661;53.566;9.910;2023-06-26T00:14:44;12.80;;;9.90;;
38901;SDS011;24661;53.566;9.910;2023-06-26T00:17:09;11.03;;;9.93;;
38901;SDS011;24661;53.566;9.910;2023-06-26T00:19:36;10.37;;;9.13;;
38901;SDS011;24661;53.566;9.910;2023-06-26T00:22:01;13.90;;;10.43;;
38901;SDS011;24661;53.566;9.910;2023-06-26T00:24:27;10.57;;;9.40;;
38901;SDS011;24661;53.566;9.910;2023-06-26T00:26:52;12.33;;;10.40;;
38901;SDS011;24661;53.566;9.910;2023-06-26T00:29:18;13.33;;;9.33;;
38901;SDS011;24661;53.566;9.910;2023-06-26T00:31:44;10.97;;;9.83;;
38901;SDS011;24661;53.566;9.910;2023-06-26T00:34:09;12.17;;;9.67;;
38901;SDS011;24661;53.566;9.910;2023-06-26T00:36:35;10.87;;;9.87;;
38901;SDS011;24661;53.566;9.910;2023-06-26T00:39:00;10.77;;;9.67;;
38901;SDS011;24661;53.566;9.910;2023-06-26T00:41:26;11.30;;;9.40;;
38901;SDS011;24661;53.566;9.910;2023-06-26T00:43:51;12.53;;;9.13;;
38901;SDS011;24661;53.566;9.910;2023-06-26T00:46:17;10.10;;;8.63;;
38901;SDS011;24661;53.566;9.910;2023-06-26T00:48:44;12.03;;;9.73;;
38901;SDS011;24661;53.566;9.910;2023-06-26T00:51:13;11.30;;;10.17;;
38901;SDS011;24661;53.566;9.910;2023-06-26T00:53:38;10.50;;;9.40;;
38901;SDS011;24661;53.566;9.910;2023-06-26T00:56:04;14.07;;;9.73;;
38901;SDS011;24661;53.566;9.910;2023-06-26T00:58:30;11.43;;;9.67;;
38901;SDS011;24661;53.566;9.910;2023-06-26T01:00:56;10.63;;;9.60;;
38901;SDS011;24661;53.566;9.910;2023-06-26T01:03:22;10.90;;;9.80;;
38901;SDS011;24661;53.566;9.910;2023-06-26T01:05:50;11.70;;;9.23;;
38901;SDS011;24661;53.566;9.910;2023-06-26T01:08:17;9.33;;;8.33;;
38901;SDS011;24661;53.566;9.910;2023-06-26T01:10:44;10.23;;;9.30;;
38901;SDS011;24661;53.566;9.910;2023-06-26T01:13:11;10.63;;;9.53;;
38901;SDS011;24661;53.566;9.910;2023-06-26T01:15:38;11.20;;;9.53;;
38901;SDS011;24661;53.566;9.910;2023-06-26T01:18:04;11.03;;;9.90;;
38901;SDS011;24661;53.566;9.910;2023-06-26T01:20:31;10.73;;;9.73;;
38901;SDS011;24661;53.566;9.910;2023-06-26T01:23:12;11.07;;;9.87;;
38901;SDS011;24661;53.566;9.910;2023-06-26T01:26:06;12.30;;;10.17;;
38901;SDS011;24661;53.566;9.910;2023-06-26T01:28:48;10.50;;;9.50;;
38901;SDS011;24661;53.566;9.910;2023-06-26T01:31:16;11.43;;;9.27;;
38901;SDS011;24661;53.566;9.910;2023-06-26T01:33:42;11.17;;;10.17;;
38901;SDS011;24661;53.566;9.910;2023-06-26T01:36:08;11.47;;;10.47;;
38901;SDS011;24661;53.566;9.910;2023-06-26T01:38:34;10.23;;;9.27;;
38901;SDS011;24661;53.566;9.910;2023-06-26T01:41:00;10.93;;;9.67;;
38901;SDS011;24661;53.566;9.910;2023-06-26T01:46:24;11.60;;;10.17;;
38901;SDS011;24661;53.566;9.910;2023-06-26T01:48:59;11.17;;;9.97;;
38901;SDS011;24661;53.566;9.910;2023-06-26T01:51:58;11.90;;;10.27;;
38901;SDS011;24661;53.566;9.910;2023-06-26T01:54:33;11.63;;;10.43;;
38901;SDS011;24661;53.566;9.910;2023-06-26T01:57:07;10.53;;;9.57;;
38901;SDS011;24661;53.566;9.910;2023-06-26T01:59:34;11.13;;;10.03;;
38901;SDS011;24661;53.566;9.910;2023-06-26T02:02:02;9.23;;;8.33;;
38901;SDS011;24661;53.566;9.910;2023-06-26T02:04:29;11.83;;;10.00;;
38901;SDS011;24661;53.566;9.910;2023-06-26T02:06:54;13.90;;;9.37;;
38901;SDS011;24661;53.566;9.910;2023-06-26T02:09:20;10.93;;;9.90;;
38901;SDS011;24661;53.566;9.910;2023-06-26T02:11:45;10.03;;;9.13;;
38901;SDS011;24661;53.566;9.910;2023-06-26T02:14:11;10.13;;;9.20;;
38901;SDS011;24661;53.566;9.910;2023-06-26T02:16:37;10.03;;;9.03;;
38901;SDS011;24661;53.566;9.910;2023-06-26T02:19:03;10.40;;;9.40;;
38901;SDS011;24661;53.566;9.910;2023-06-26T02:21:28;11.43;;;10.27;;
38901;SDS011;24661;53.566;9.910;2023-06-26T02:23:54;11.33;;;9.53;;
38901;SDS011;24661;53.566;9.910;2023-06-26T02:26:19;10.37;;;9.27;;
38901;SDS011;24661;53.566;9.910;2023-06-26T02:28:45;10.50;;;9.10;;
38901;SDS011;24661;53.566;9.910;2023-06-26T02:31:11;10.40;;;9.17;;
38901;SDS011;24661;53.566;9.910;2023-06-26T02:33:36;10.23;;;9.10;;
38901;SDS011;24661;53.566;9.910;2023-06-26T02:36:02;9.77;;;8.80;;
38901;SDS011;24661;53.566;9.910;2023-06-26T02:38:28;11.13;;;8.97;;
38901;SDS011;24661;53.566;9.910;2023-06-26T02:40:53;13.30;;;9.60;;
38901;SDS011;24661;53.566;9.910;2023-06-26T02:43:19;10.60;;;9.60;;
38901;SDS011;24661;53.566;9.910;2023-06-26T02:45:44;10.20;;;8.67;;
38901;SDS011;24661;53.566;9.910;2023-06-26T02:48:10;10.07;;;8.70;;
38901;SDS011;24661;53.566;9.910;2023-06-26T02:50:35;10.73;;;9.73;;
38901;SDS011;24661;53.566;9.910;2023-06-26T02:53:01;9.57;;;8.50;;
38901;SDS011;24661;53.566;9.910;2023-06-26T02:55:26;10.67;;;9.57;;
38901;SDS011;24661;53.566;9.910;2023-06-26T02:57:52;10.33;;;9.20;;
38901;SDS011;24661;53.566;9.910;2023-06-26T03:00:18;10.97;;;9.57;;
38901;SDS011;24661;53.566;9.910;2023-06-26T03:02:43;10.70;;;9.60;;
38901;SDS011;24661;53.566;9.910;2023-06-26T03:05:09;11.03;;;9.33;;
38901;SDS011;24661;53.566;9.910;2023-06-26T03:07:34;10.20;;;9.20;;
38901;SDS011;24661;53.566;9.910;2023-06-26T03:10:00;10.13;;;9.17;;
38901;SDS011;24661;53.566;9.910;2023-06-26T03:12:25;11.23;;;10.13;;
38901;SDS011;24661;53.566;9.910;2023-06-26T03:14:51;11.47;;;9.70;;
38901;SDS011;24661;53.566;9.910;2023-06-26T03:17:16;10.80;;;9.63;;
38901;SDS011;24661;53.566;9.910;2023-06-26T03:19:42;10.17;;;8.87;;
38901;SDS011;24661;53.566;9.910;2023-06-26T03:22:08;10.80;;;9.77;;
38901;SDS011;24661;53.566;9.910;2023-06-26T03:24:33;10.50;;;9.40;;
38901;SDS011;24661;53.566;9.910;2023-06-26T03:26:59;10.30;;;9.23;;
38901;SDS011;24661;53.566;9.910;2023-06-26T03:29:25;11.53;;;9.97;;
38901;SDS011;24661;53.566;9.910;2023-06-26T03:31:50;14.63;;;10.63;;
38901;SDS011;24661;53.566;9.910;2023-06-26T03:34:16;12.63;;;10.47;;
38901;SDS011;24661;53.566;9.910;2023-06-26T03:36:41;10.83;;;9.37;;
38901;SDS011;24661;53.566;9.910;2023-06-26T03:39:07;9.27;;;8.43;;
38901;SDS011;24661;53.566;9.910;2023-06-26T03:41:32;9.77;;;8.83;;
38901;SDS011;24661;53.566;9.910;2023-06-26T03:43:58;11.20;;;10.10;;
38901;SDS011;24661;53.566;9.910;2023-06-26T03:46:25;10.30;;;9.30;;
38901;SDS011;24661;53.566;9.910;2023-06-26T03:48:51;11.40;;;10.23;;
38901;SDS011;24661;53.566;9.910;2023-06-26T03:51:16;12.40;;;9.17;;
38901;SDS011;24661;53.566;9.910;2023-06-26T03:53:42;10.43;;;9.33;;
38901;SDS011;24661;53.566;9.910;2023-06-26T03:56:07;11.60;;;9.50;;
38901;SDS011;24661;53.566;9.910;2023-06-26T03:58:33;12.90;;;9.87;;
38901;SDS011;24661;53.566;9.910;2023-06-26T04:00:58;9.53;;;8.53;;
38901;SDS011;24661;53.566;9.910;2023-06-26T04:03:25;11.50;;;9.70;;
38901;SDS011;24661;53.566;9.910;2023-06-26T04:05:51;10.63;;;9.53;;
38901;SDS011;24661;53.566;9.910;2023-06-26T04:08:16;9.93;;;8.93;;
38901;SDS011;24661;53.566;9.910;2023-06-26T04:10:42;12.87;;;10.43;;
38901;SDS011;24661;53.566;9.910;2023-06-26T04:13:10;13.83;;;9.60;;
38901;SDS011;24661;53.566;9.910;2023-06-26T04:15:35;10.67;;;9.57;;
38901;SDS011;24661;53.566;9.910;2023-06-26T04:18:01;12.33;;;9.03;;
38901;SDS011;24661;53.566;9.910;2023-06-26T04:20:28;10.53;;;9.50;;
38901;SDS011;24661;53.566;9.910;2023-06-26T04:22:53;11.17;;;9.70;;
38901;SDS011;24661;53.566;9.910;2023-06-26T04:25:19;11.37;;;10.17;;
38901;SDS011;24661;53.566;9.910;2023-06-26T04:27:44;9.80;;;8.80;;
38901;SDS011;24661;53.566;9.910;2023-06-26T04:30:10;10.40;;;8.67;;
38901;SDS011;24661;53.566;9.910;2023-06-26T04:32:37;10.10;;;9.10;;
38901;SDS011;24661;53.566;9.910;2023-06-26T04:35:02;10.80;;;9.73;;
38901;SDS011;24661;53.566;9.910;2023-06-26T04:37:28;12.30;;;9.00;;
38901;SDS011;24661;53.566;9.910;2023-06-26T04:39:54;11.07;;;9.43;;
38901;SDS011;24661;53.566;9.910;2023-06-26T04:42:19;12.47;;;10.73;;
38901;SDS011;24661;53.566;9.910;2023-06-26T04:44:46;13.27;;;11.47;;
38901;SDS011;24661;53.566;9.910;2023-06-26T04:47:12;12.27;;;10.10;;
38901;SDS011;24661;53.566;9.910;2023-06-26T04:49:40;14.50;;;9.77;;
38901;SDS011;24661;53.566;9.910;2023-06-26T04:52:08;11.07;;;9.20;;
38901;SDS011;24661;53.566;9.910;2023-06-26T04:54:33;9.00;;;8.20;;
38901;SDS011;24661;53.566;9.910;2023-06-26T04:56:59;12.23;;;8.83;;
38901;SDS011;24661;53.566;9.910;2023-06-26T04:59:25;9.47;;;8.30;;
38901;SDS011;24661;53.566;9.910;2023-06-26T05:01:50;11.27;;;9.37;;
38901;SDS011;24661;53.566;9.910;2023-06-26T05:04:16;10.27;;;8.60;;
38901;SDS011;24661;53.566;9.910;2023-06-26T05:06:41;14.47;;;9.97;;
38901;SDS011;24661;53.566;9.910;2023-06-26T05:09:07;9.43;;;8.37;;
38901;SDS011;24661;53.566;9.910;2023-06-26T05:11:33;10.73;;;9.63;;
38901;SDS011;24661;53.566;9.910;2023-06-26T05:13:58;10.80;;;9.70;;
38901;SDS011;24661;53.566;9.910;2023-06-26T05:16:24;10.67;;;9.67;;
38901;SDS011;24661;53.566;9.910;2023-06-26T05:18:49;10.10;;;9.10;;
38901;SDS011;24661;53.566;9.910;2023-06-26T05:21:15;13.70;;;8.30;;
38901;SDS011;24661;53.566;9.910;2023-06-26T05:23:41;13.67;;;9.10;;
38901;SDS011;24661;53.566;9.910;2023-06-26T05:26:09;10.87;;;9.77;;
38901;SDS011;24661;53.566;9.910;2023-06-26T05:28:36;10.57;;;8.83;;
38901;SDS011;24661;53.566;9.910;2023-06-26T05:31:02;16.97;;;11.23;;
38901;SDS011;24661;53.566;9.910;2023-06-26T05:33:30;19.10;;;9.70;;
38901;SDS011;24661;53.566;9.910;2023-06-26T05:35:56;11.17;;;9.87;;
38901;SDS011;24661;53.566;9.910;2023-06-26T05:38:23;17.63;;;8.77;;
38901;SDS011;24661;53.566;9.910;2023-06-26T05:40:49;15.87;;;9.33;;
38901;SDS011;24661;53.566;9.910;2023-06-26T05:43:15;10.20;;;8.77;;
38901;SDS011;24661;53.566;9.910;2023-06-26T05:45:41;9.67;;;8.57;;
38901;SDS011;24661;53.566;9.910;2023-06-26T05:48:07;10.93;;;8.20;;
38901;SDS011;24661;53.566;9.910;2023-06-26T05:50:32;9.23;;;8.33;;
38901;SDS011;24661;53.566;9.910;2023-06-26T05:52:58;12.57;;;9.27;;
38901;SDS011;24661;53.566;9.910;2023-06-26T05:55:25;9.10;;;8.13;;
38901;SDS011;24661;53.566;9.910;2023-06-26T05:57:51;11.30;;;8.60;;
38901;SDS011;24661;53.566;9.910;2023-06-26T06:00:18;15.60;;;8.90;;
38901;SDS011;24661;53.566;9.910;2023-06-26T06:02:45;12.40;;;8.17;;
38901;SDS011;24661;53.566;9.910;2023-06-26T06:05:10;11.83;;;9.50;;
38901;SDS011;24661;53.566;9.910;2023-06-26T06:07:36;9.73;;;8.17;;
38901;SDS011;24661;53.566;9.910;2023-06-26T06:10:02;13.53;;;8.53;;
38901;SDS011;24661;53.566;9.910;2023-06-26T06:12:28;13.27;;;7.93;;
38901;SDS011;24661;53.566;9.910;2023-06-26T06:14:55;18.63;;;8.83;;
38901;SDS011;24661;53.566;9.910;2023-06-26T06:17:21;9.37;;;8.10;;
38901;SDS011;24661;53.566;9.910;2023-06-26T06:19:47;11.23;;;7.30;;
38901;SDS011;24661;53.566;9.910;2023-06-26T06:22:13;10.63;;;8.97;;
38901;SDS011;24661;53.566;9.910;2023-06-26T06:24:38;9.67;;;7.73;;
38901;SDS011;24661;53.566;9.910;2023-06-26T06:27:04;12.37;;;9.10;;
38901;SDS011;24661;53.566;9.910;2023-06-26T06:29:30;16.37;;;8.60;;
38901;SDS011;24661;53.566;9.910;2023-06-26T06:31:56;13.30;;;7.77;;
38901;SDS011;24661;53.566;9.910;2023-06-26T06:34:21;10.73;;;8.63;;
38901;SDS011;24661;53.566;9.910;2023-06-26T06:36:48;11.00;;;8.30;;
38901;SDS011;24661;53.566;9.910;2023-06-26T06:39:14;8.53;;;7.53;;
38901;SDS011;24661;53.566;9.910;2023-06-26T06:41:40;14.97;;;7.97;;
38901;SDS011;24661;53.566;9.910;2023-06-26T06:44:06;9.67;;;7.63;;
38901;SDS011;24661;53.566;9.910;2023-06-26T06:46:31;12.20;;;8.37;;
38901;SDS011;24661;53.566;9.910;2023-06-26T06:48:57;12.33;;;7.83;;
38901;SDS011;24661;53.566;9.910;2023-06-26T06:51:22;12.63;;;8.10;;
38901;SDS011;24661;53.566;9.910;2023-06-26T06:53:48;8.70;;;7.60;;
38901;SDS011;24661;53.566;9.910;2023-06-26T06:56:13;13.03;;;9.00;;
38901;SDS011;24661;53.566;9.910;2023-06-26T06:58:39;11.33;;;7.90;;
38901;SDS011;24661;53.566;9.910;2023-06-26T07:01:07;10.37;;;7.80;;
38901;SDS011;24661;53.566;9.910;2023-06-26T07:03:34;12.73;;;7.70;;
38901;SDS011;24661;53.566;9.910;2023-06-26T07:05:59;11.63;;;8.43;;
38901;SDS011;24661;53.566;9.910;2023-06-26T07:08:25;9.00;;;7.30;;
38901;SDS011;24661;53.566;9.910;2023-06-26T07:10:50;14.33;;;8.50;;
38901;SDS011;24661;53.566;9.910;2023-06-26T07:13:16;12.53;;;7.73;;
38901;SDS011;24661;53.566;9.910;2023-06-26T07:15:41;10.27;;;7.37;;
38901;SDS011;24661;53.566;9.910;2023-06-26T07:18:08;8.60;;;7.70;;
38901;SDS011;24661;53.566;9.910;2023-06-26T07:20:33;11.23;;;7.60;;
38901;SDS011;24661;53.566;9.910;2023-06-26T07:23:00;10.10;;;7.43;;
38901;SDS011;24661;53.566;9.910;2023-06-26T07:25:26;11.37;;;8.30;;
38901;SDS011;24661;53.566;9.910;2023-06-26T07:27:52;8.77;;;7.87;;
38901;SDS011;24661;53.566;9.910;2023-06-26T07:30:17;13.47;;;8.03;;
38901;SDS011;24661;53.566;9.910;2023-06-26T07:32:44;7.53;;;6.73;;
38901;SDS011;24661;53.566;9.910;2023-06-26T07:35:10;10.53;;;7.57;;
38901;SDS011;24661;53.566;9.910;2023-06-26T07:37:36;7.67;;;6.97;;
38901;SDS011;24661;53.566;9.910;2023-06-26T07:40:02;8.10;;;7.03;;
38901;SDS011;24661;53.566;9.910;2023-06-26T07:42:28;8.80;;;6.60;;
38901;SDS011;24661;53.566;9.910;2023-06-26T07:44:54;11.50;;;7.10;;
38901;SDS011;24661;53.566;9.910;2023-06-26T07:47:20;9.87;;;6.77;;
38901;SDS011;24661;53.566;9.910;2023-06-26T07:49:45;8.53;;;7.73;;
38901;SDS011;24661;53.566;9.910;2023-06-26T07:52:11;8.30;;;7.10;;
38901;SDS011;24661;53.566;9.910;2023-06-26T07:54:37;8.37;;;7.27;;
38901;SDS011;24661;53.566;9.910;2023-06-26T07:57:03;11.23;;;7.27;;
38901;SDS011;24661;53.566;9.910;2023-06-26T07:59:32;11.97;;;6.50;;
38901;SDS011;24661;53.566;9.910;2023-06-26T08:01:58;8.97;;;6.90;;
38901;SDS011;24661;53.566;9.910;2023-06-26T08:04:25;7.93;;;6.53;;
38901;SDS011;24661;53.566;9.910;2023-06-26T08:06:52;6.93;;;6.23;;
38901;SDS011;24661;53.566;9.910;2023-06-26T08:09:19;12.77;;;6.60;;
38901;SDS011;24661;53.566;9.910;2023-06-26T08:11:46;7.50;;;5.87;;
38901;SDS011;24661;53.566;9.910;2023-06-26T08:14:12;7.07;;;6.40;;
38901;SDS011;24661;53.566;9.910;2023-06-26T08:16:41;10.33;;;7.37;;
38901;SDS011;24661;53.566;9.910;2023-06-26T08:19:07;6.77;;;6.17;;
38901;SDS011;24661;53.566;9.910;2023-06-26T08:21:33;7.23;;;6.53;;
38901;SDS011;24661;53.566;9.910;2023-06-26T08:23:59;5.83;;;5.23;;
38901;SDS011;24661;53.566;9.910;2023-06-26T08:26:24;6.37;;;5.73;;
38901;SDS011;24661;53.566;9.910;2023-06-26T08:28:50;6.90;;;5.83;;
38901;SDS011;24661;53.566;9.910;2023-06-26T08:31:16;7.57;;;6.37;;
38901;SDS011;24661;53.566;9.910;2023-06-26T08:33:42;7.33;;;6.13;;
38901;SDS011;24661;53.566;9.910;2023-06-26T08:36:07;9.87;;;8.03;;
38901;SDS011;24661;53.566;9.910;2023-06-26T08:38:33;14.67;;;9.67;;
38901;SDS011;24661;53.566;9.910;2023-06-26T08:40:59;10.27;;;7.27;;
38901;SDS011;24661;53.566;9.910;2023-06-26T08:43:25;8.70;;;7.47;;
38901;SDS011;24661;53.566;9.910;2023-06-26T08:45:52;7.80;;;6.77;;
38901;SDS011;24661;53.566;9.910;2023-06-26T08:48:18;7.37;;;6.47;;
38901;SDS011;24661;53.566;9.910;2023-06-26T08:50:45;9.10;;;6.90;;
38901;SDS011;24661;53.566;9.910;2023-06-26T08:53:21;7.93;;;6.97;;
38901;SDS011;24661;53.566;9.910;2023-06-26T08:56:08;8.67;;;7.40;;
38901;SDS011;24661;53.566;9.910;2023-06-26T08:58:36;10.93;;;7.57;;
38901;SDS011;24661;53.566;9.910;2023-06-26T09:01:04;8.60;;;7.80;;
38901;SDS011;24661;53.566;9.910;2023-06-26T09:03:31;10.90;;;9.43;;
38901;SDS011;24661;53.566;9.910;2023-06-26T09:05:57;8.73;;;7.77;;
38901;SDS011;24661;53.566;9.910;2023-06-26T09:08:22;12.67;;;8.50;;
38901;SDS011;24661;53.566;9.910;2023-06-26T09:10:48;11.63;;;8.40;;
38901;SDS011;24661;53.566;9.910;2023-06-26T09:13:13;9.50;;;8.23;;
38901;SDS011;24661;53.566;9.910;2023-06-26T09:15:42;16.37;;;8.70;;
38901;SDS011;24661;53.566;9.910;2023-06-26T09:18:09;12.50;;;9.20;;
38901;SDS011;24661;53.566;9.910;2023-06-26T09:20:34;9.40;;;8.43;;
38901;SDS011;24661;53.566;9.910;2023-06-26T09:23:02;9.87;;;8.80;;
38901;SDS011;24661;53.566;9.910;2023-06-26T09:25:28;14.53;;;9.23;;
38901;SDS011;24661;53.566;9.910;2023-06-26T09:27:54;12.20;;;9.60;;
38901;SDS011;24661;53.566;9.910;2023-06-26T09:30:20;15.10;;;10.13;;
38901;SDS011;24661;53.566;9.910;2023-06-26T09:32:46;14.37;;;9.50;;
38901;SDS011;24661;53.566;9.910;2023-06-26T09:35:12;14.97;;;9.33;;
38901;SDS011;24661;53.566;9.910;2023-06-26T09:37:38;11.73;;;7.80;;
38901;SDS011;24661;53.566;9.910;2023-06-26T09:40:05;8.90;;;7.30;;
38901;SDS011;24661;53.566;9.910;2023-06-26T09:42:31;11.70;;;8.63;;
38901;SDS011;24661;53.566;9.910;2023-06-26T09:44:57;14.40;;;9.83;;
38901;SDS011;24661;53.566;9.910;2023-06-26T09:47:23;15.50;;;9.93;;
38901;SDS011;24661;53.566;9.910;2023-06-26T09:49:49;12.87;;;9.90;;
38901;SDS011;24661;53.566;9.910;2023-06-26T09:52:16;17.30;;;9.90;;
38901;SDS011;24661;53.566;9.910;2023-06-26T09:54:42;12.27;;;10.07;;
38901;SDS011;24661;53.566;9.910;2023-06-26T09:57:10;13.20;;;10.67;;
38901;SDS011;24661;53.566;9.910;2023-06-26T09:59:36;15.03;;;10.70;;
38901;SDS011;24661;53.566;9.910;2023-06-26T10:02:03;14.17;;;11.00;;
38901;SDS011;24661;53.566;9.910;2023-06-26T10:04:29;15.17;;;11.03;;
38901;SDS011;24661;53.566;9.910;2023-06-26T10:06:55;16.43;;;11.63;;
38901;SDS011;24661;53.566;9.910;2023-06-26T10:09:23;15.60;;;11.10;;
38901;SDS011;24661;53.566;9.910;2023-06-26T10:14:34;12.87;;;10.83;;
38901;SDS011;24661;53.566;9.910;2023-06-26T10:17:03;18.67;;;10.80;;
38901;SDS011;24661;53.566;9.910;2023-06-26T10:19:32;11.97;;;10.23;;
38901;SDS011;24661;53.566;9.910;2023-06-26T10:21:59;11.43;;;7.93;;
38901;SDS011;24661;53.566;9.910;2023-06-26T10:24:28;14.63;;;7.63;;
38901;SDS011;24661;53.566;9.910;2023-06-26T10:27:02;14.30;;;7.90;;
38901;SDS011;24661;53.566;9.910;2023-06-26T10:29:31;17.10;;;9.07;;
38901;SDS011;24661;53.566;9.910;2023-06-26T10:31:58;12.77;;;8.60;;
38901;SDS011;24661;53.566;9.910;2023-06-26T10:34:25;17.33;;;9.43;;
38901;SDS011;24661;53.566;9.910;2023-06-26T10:37:00;15.07;;;8.00;;
38901;SDS011;24661;53.566;9.910;2023-06-26T10:39:32;12.37;;;7.07;;
38901;SDS011;24661;53.566;9.910;2023-06-26T10:42:19;12.97;;;6.97;;
38901;SDS011;24661;53.566;9.910;2023-06-26T10:45:10;7.63;;;6.83;;
38901;SDS011;24661;53.566;9.910;2023-06-26T10:47:41;11.13;;;7.90;;
38901;SDS011;24661;53.566;9.910;2023-06-26T10:50:24;10.67;;;7.77;;
38901;SDS011;24661;53.566;9.910;2023-06-26T10:53:25;11.97;;;8.67;;
38901;SDS011;24661;53.566;9.910;2023-06-26T10:58:31;8.67;;;7.77;;
38901;SDS011;24661;53.566;9.910;2023-06-26T11:03:36;9.77;;;8.03;;
38901;SDS011;24661;53.566;9.910;2023-06-26T11:06:13;13.23;;;8.80;;
38901;SDS011;24661;53.566;9.910;2023-06-26T11:08:48;12.57;;;8.83;;
38901;SDS011;24661;53.566;9.910;2023-06-26T11:11:21;16.37;;;9.00;;
38901;SDS011;24661;53.566;9.910;2023-06-26T11:14:07;13.57;;;8.90;;
38901;SDS011;24661;53.566;9.910;2023-06-26T11:16:33;14.93;;;7.07;;
38901;SDS011;24661;53.566;9.910;2023-06-26T11:18:59;11.50;;;6.47;;
38901;SDS011;24661;53.566;9.910;2023-06-26T11:21:26;14.70;;;7.23;;
38901;SDS011;24661;53.566;9.910;2023-06-26T11:23:52;15.57;;;6.53;;
38901;SDS011;24661;53.566;9.910;2023-06-26T11:26:23;15.07;;;7.13;;
38901;SDS011;24661;53.566;9.910;2023-06-26T11:28:53;16.17;;;6.53;;
38901;SDS011;24661;53.566;9.910;2023-06-26T11:33:59;16.20;;;6.90;;
38901;SDS011;24661;53.566;9.910;2023-06-26T11:36:25;15.10;;;5.33;;
38901;SDS011;24661;53.566;9.910;2023-06-26T11:38:58;14.13;;;5.17;;
38901;SDS011;24661;53.566;9.910;2023-06-26T11:41:26;9.10;;;4.50;;
38901;SDS011;24661;53.566;9.910;2023-06-26T11:43:53;13.37;;;4.20;;
38901;SDS011;24661;53.566;9.910;2023-06-26T11:46:19;10.17;;;4.17;;
38901;SDS011;24661;53.566;9.910;2023-06-26T11:48:46;8.50;;;3.97;;
38901;SDS011;24661;53.566;9.910;2023-06-26T11:51:13;13.67;;;3.70;;
38901;SDS011;24661;53.566;9.910;2023-06-26T11:53:42;9.13;;;3.20;;
38901;SDS011;24661;53.566;9.910;2023-06-26T11:56:13;9.17;;;2.93;;
38901;SDS011;24661;53.566;9.910;2023-06-26T12:01:29;7.57;;;3.00;;
38901;SDS011;24661;53.566;9.910;2023-06-26T12:04:04;9.20;;;2.80;;
38901;SDS011;24661;53.566;9.910;2023-06-26T12:06:31;8.17;;;2.97;;
38901;SDS011;24661;53.566;9.910;2023-06-26T12:09:02;7.57;;;2.80;;
38901;SDS011;24661;53.566;9.910;2023-06-26T12:11:31;11.30;;;2.50;;
38901;SDS011;24661;53.566;9.910;2023-06-26T12:13:58;4.23;;;2.03;;
38901;SDS011;24661;53.566;9.910;2023-06-26T12:16:24;6.70;;;3.10;;
38901;SDS011;24661;53.566;9.910;2023-06-26T12:18:50;10.57;;;3.70;;
38901;SDS011;24661;53.566;9.910;2023-06-26T12:24:08;11.47;;;2.27;;
38901;SDS011;24661;53.566;9.910;2023-06-26T12:26:36;11.93;;;3.23;;
38901;SDS011;24661;53.566;9.910;2023-06-26T12:31:32;8.13;;;2.47;;
38901;SDS011;24661;53.566;9.910;2023-06-26T12:33:59;6.80;;;2.73;;
38901;SDS011;24661;53.566;9.910;2023-06-26T12:36:25;7.93;;;2.63;;
38901;SDS011;24661;53.566;9.910;2023-06-26T12:38:52;9.43;;;3.10;;
38901;SDS011;24661;53.566;9.910;2023-06-26T12:41:19;6.00;;;2.07;;
38901;SDS011;24661;53.566;9.910;2023-06-26T12:43:45;7.57;;;2.50;;
38901;SDS011;24661;53.566;9.910;2023-06-26T12:46:11;6.20;;;2.77;;
38901;SDS011;24661;53.566;9.910;2023-06-26T12:48:41;7.77;;;2.50;;
38901;SDS011;24661;53.566;9.910;2023-06-26T12:51:14;6.73;;;2.40;;
38901;SDS011;24661;53.566;9.910;2023-06-26T12:53:42;9.83;;;2.70;;
38901;SDS011;24661;53.566;9.910;2023-06-26T12:56:08;7.53;;;2.60;;
38901;SDS011;24661;53.566;9.910;2023-06-26T12:58:36;8.87;;;3.13;;
38901;SDS011;24661;53.566;9.910;2023-06-26T13:01:03;4.03;;;2.07;;
38901;SDS011;24661;53.566;9.910;2023-06-26T13:03:29;8.53;;;2.50;;
38901;SDS011;24661;53.566;9.910;2023-06-26T13:05:55;7.93;;;2.63;;
38901;SDS011;24661;53.566;9.910;2023-06-26T13:08:21;8.43;;;2.30;;
38901;SDS011;24661;53.566;9.910;2023-06-26T13:10:46;9.00;;;2.50;;
38901;SDS011;24661;53.566;9.910;2023-06-26T13:13:12;6.87;;;2.40;;
38901;SDS011;24661;53.566;9.910;2023-06-26T13:15:38;4.37;;;2.20;;
38901;SDS011;24661;53.566;9.910;2023-06-26T13:18:03;4.73;;;1.97;;
38901;SDS011;24661;53.566;9.910;2023-06-26T13:20:29;6.57;;;2.13;;
38901;SDS011;24661;53.566;9.910;2023-06-26T13:22:55;11.83;;;2.93;;
38901;SDS011;24661;53.566;9.910;2023-06-26T13:25:21;7.33;;;2.30;;
38901;SDS011;24661;53.566;9.910;2023-06-26T13:27:47;8.33;;;2.90;;
38901;SDS011;24661;53.566;9.910;2023-06-26T13:30:14;6.33;;;2.40;;
38901;SDS011;24661;53.566;9.910;2023-06-26T13:32:40;4.70;;;1.93;;
38901;SDS011;24661;53.566;9.910;2023-06-26T13:35:05;6.23;;;2.13;;
38901;SDS011;24661;53.566;9.910;2023-06-26T13:37:32;5.30;;;2.47;;
38901;SDS011;24661;53.566;9.910;2023-06-26T13:39:59;6.97;;;2.57;;
38901;SDS011;24661;53.566;9.910;2023-06-26T13:42:26;5.97;;;2.30;;
38901;SDS011;24661;53.566;9.910;2023-06-26T13:44:52;4.80;;;2.23;;
38901;SDS011;24661;53.566;9.910;2023-06-26T13:47:17;7.33;;;2.33;;
38901;SDS011;24661;53.566;9.910;2023-06-26T13:49:43;8.77;;;2.73;;
38901;SDS011;24661;53.566;9.910;2023-06-26T13:52:08;7.13;;;2.60;;
38901;SDS011;24661;53.566;9.910;2023-06-26T13:54:35;4.63;;;2.93;;
38901;SDS011;24661;53.566;9.910;2023-06-26T13:57:04;4.33;;;1.70;;
38901;SDS011;24661;53.566;9.910;2023-06-26T13:59:30;2.77;;;1.70;;
38901;SDS011;24661;53.566;9.910;2023-06-26T14:01:56;5.03;;;1.30;;
38901;SDS011;24661;53.566;9.910;2023-06-26T14:04:22;7.57;;;1.70;;
38901;SDS011;24661;53.566;9.910;2023-06-26T14:06:48;4.57;;;1.63;;
38901;SDS011;24661;53.566;9.910;2023-06-26T14:09:13;2.80;;;1.83;;
38901;SDS011;24661;53.566;9.910;2023-06-26T14:11:39;4.07;;;1.70;;
38901;SDS011;24661;53.566;9.910;2023-06-26T14:14:05;2.40;;;1.40;;
38901;SDS011;24661;53.566;9.910;2023-06-26T14:16:30;6.83;;;1.70;;
38901;SDS011;24661;53.566;9.910;2023-06-26T14:18:56;7.53;;;1.90;;
38901;SDS011;24661;53.566;9.910;2023-06-26T14:21:22;3.00;;;1.93;;
38901;SDS011;24661;53.566;9.910;2023-06-26T14:23:48;4.30;;;1.87;;
38901;SDS011;24661;53.566;9.910;2023-06-26T14:26:14;8.50;;;2.00;;
38901;SDS011;24661;53.566;9.910;2023-06-26T14:28:39;5.77;;;1.97;;
38901;SDS011;24661;53.566;9.910;2023-06-26T14:31:05;4.77;;;1.67;;
38901;SDS011;24661;53.566;9.910;2023-06-26T14:33:31;2.17;;;1.47;;
38901;SDS011;24661;53.566;9.910;2023-06-26T14:35:57;4.40;;;1.70;;
38901;SDS011;24661;53.566;9.910;2023-06-26T14:38:22;3.73;;;1.80;;
38901;SDS011;24661;53.566;9.910;2023-06-26T14:40:48;3.17;;;1.70;;
38901;SDS011;24661;53.566;9.910;2023-06-26T14:43:13;5.70;;;1.97;;
38901;SDS011;24661;53.566;9.910;2023-06-26T14:45:39;2.90;;;1.77;;
38901;SDS011;24661;53.566;9.910;2023-06-26T14:48:04;2.60;;;1.40;;
38901;SDS011;24661;53.566;9.910;2023-06-26T14:50:30;9.20;;;6.03;;
38901;SDS011;24661;53.566;9.910;2023-06-26T14:52:56;2.37;;;1.40;;
38901;SDS011;24661;53.566;9.910;2023-06-26T14:55:21;5.10;;;1.43;;
38901;SDS011;24661;53.566;9.910;2023-06-26T14:57:47;3.47;;;1.50;;